sensor_id;sensor_type;location;lat;lon;timestamp;P1;durP1;ratioP1;P2;durP2;ratioP2
579;SDS011;276;48.392;9.950;2023-06-14T00:02:19;4.83;;;4.43;;
579;SDS011;276;48.392;9.950;2023-06-14T00:04:45;5.37;;;4.87;;
579;SDS011;276;48.392;9.950;2023-06-14T00:07:13;5.10;;;4.60;;
579;SDS011;276;48.392;9.950;2023-06-14T00:09:38;5.20;;;4.60;;
579;SDS011;276;48.392;9.950;2023-06-14T00:12:06;4.63;;;4.23;;
579;SDS011;276;48.392;9.950;2023-06-14T00:14:33;5.10;;;4.70;;
579;SDS011;276;48.392;9.950;2023-06-14T00:16:59;5.23;;;4.73;;
579;SDS011;276;48.392;9.950;2023-06-14T00:19:25;4.90;;;4.40;;
579;SDS011;276;48.392;9.950;2023-06-14T00:21:51;5.93;;;4.67;;
579;SDS011;276;48.392;9.950;2023-06-14T00:24:17;5.03;;;4.53;;
579;SDS011;276;48.392;9.950;2023-06-14T00:26:44;4.60;;;4.30;;
579;SDS011;276;48.392;9.950;2023-06-14T00:29:09;6.07;;;4.57;;
579;SDS011;276;48.392;9.950;2023-06-14T00:31:35;4.63;;;4.23;;
579;SDS011;276;48.392;9.950;2023-06-14T00:34:01;3.80;;;3.50;;
579;SDS011;276;48.392;9.950;2023-06-14T00:36:29;4.30;;;3.90;;
579;SDS011;276;48.392;9.950;2023-06-14T00:38:59;4.60;;;4.20;;
579;SDS011;276;48.392;9.950;2023-06-14T00:41:28;4.67;;;4.37;;
579;SDS011;276;48.392;9.950;2023-06-14T00:43:54;4.23;;;3.83;;
579;SDS011;276;48.392;9.950;2023-06-14T00:46:22;5.03;;;4.57;;
579;SDS011;276;48.392;9.950;2023-06-14T00:48:48;4.63;;;4.23;;
579;SDS011;276;48.392;9.950;2023-06-14T00:51:14;4.77;;;4.47;;
579;SDS011;276;48.392;9.950;2023-06-14T00:53:42;4.50;;;3.63;;
579;SDS011;276;48.392;9.950;2023-06-14T00:56:12;4.33;;;4.03;;
579;SDS011;276;48.392;9.950;2023-06-14T00:58:40;4.80;;;4.40;;
579;SDS011;276;48.392;9.950;2023-06-14T01:01:06;4.67;;;4.23;;
579;SDS011;276;48.392;9.950;2023-06-14T01:03:32;5.10;;;4.70;;
579;SDS011;276;48.392;9.950;2023-06-14T01:09:18;4.50;;;3.93;;
579;SDS011;276;48.392;9.950;2023-06-14T01:12:15;4.53;;;4.13;;
579;SDS011;276;48.392;9.950;2023-06-14T01:15:04;5.20;;;4.43;;
579;SDS011;276;48.392;9.950;2023-06-14T01:17:30;6.60;;;4.87;;
579;SDS011;276;48.392;9.950;2023-06-14T01:20:03;5.00;;;3.87;;
579;SDS011;276;48.392;9.950;2023-06-14T01:22:34;8.07;;;4.93;;
579;SDS011;276;48.392;9.950;2023-06-14T01:25:03;4.20;;;3.90;;
579;SDS011;276;48.392;9.950;2023-06-14T01:27:31;5.13;;;4.30;;
579;SDS011;276;48.392;9.950;2023-06-14T01:29:59;4.33;;;3.93;;
579;SDS011;276;48.392;9.950;2023-06-14T01:32:28;5.23;;;4.73;;
579;SDS011;276;48.392;9.950;2023-06-14T01:34:55;7.87;;;4.43;;
579;SDS011;276;48.392;9.950;2023-06-14T01:37:20;4.27;;;3.87;;
579;SDS011;276;48.392;9.950;2023-06-14T01:39:47;5.10;;;4.50;;
579;SDS011;276;48.392;9.950;2023-06-14T01:42:16;4.40;;;4.10;;
579;SDS011;276;48.392;9.950;2023-06-14T01:44:42;5.33;;;4.83;;
579;SDS011;276;48.392;9.950;2023-06-14T01:47:10;4.40;;;4.00;;
579;SDS011;276;48.392;9.950;2023-06-14T01:49:38;5.17;;;4.70;;
579;SDS011;276;48.392;9.950;2023-06-14T01:52:03;7.20;;;4.00;;
579;SDS011;276;48.392;9.950;2023-06-14T01:54:29;4.97;;;4.60;;
579;SDS011;276;48.392;9.950;2023-06-14T01:56:56;4.00;;;3.67;;
579;SDS011;276;48.392;9.950;2023-06-14T01:59:22;4.40;;;4.10;;
579;SDS011;276;48.392;9.950;2023-06-14T02:01:48;4.50;;;4.10;;
579;SDS011;276;48.392;9.950;2023-06-14T02:04:16;6.03;;;5.53;;
579;SDS011;276;48.392;9.950;2023-06-14T02:06:46;5.80;;;4.90;;
579;SDS011;276;48.392;9.950;2023-06-14T02:09:15;5.17;;;4.67;;
579;SDS011;276;48.392;9.950;2023-06-14T02:11:41;4.33;;;3.97;;
579;SDS011;276;48.392;9.950;2023-06-14T02:14:06;5.43;;;4.93;;
579;SDS011;276;48.392;9.950;2023-06-14T02:16:35;4.70;;;4.23;;
579;SDS011;276;48.392;9.950;2023-06-14T02:19:01;5.40;;;4.80;;
579;SDS011;276;48.392;9.950;2023-06-14T02:21:27;4.50;;;4.20;;
579;SDS011;276;48.392;9.950;2023-06-14T02:23:52;5.17;;;4.67;;
579;SDS011;276;48.392;9.950;2023-06-14T02:26:18;4.73;;;4.33;;
579;SDS011;276;48.392;9.950;2023-06-14T02:28:45;4.53;;;4.20;;
579;SDS011;276;48.392;9.950;2023-06-14T02:31:11;5.30;;;4.80;;
579;SDS011;276;48.392;9.950;2023-06-14T02:33:39;4.47;;;4.07;;
579;SDS011;276;48.392;9.950;2023-06-14T02:36:07;8.00;;;4.77;;
579;SDS011;276;48.392;9.950;2023-06-14T02:38:33;5.17;;;4.67;;
579;SDS011;276;48.392;9.950;2023-06-14T02:41:03;5.40;;;4.47;;
579;SDS011;276;48.392;9.950;2023-06-14T02:43:31;5.17;;;4.50;;
579;SDS011;276;48.392;9.950;2023-06-14T02:45:57;5.50;;;4.90;;
579;SDS011;276;48.392;9.950;2023-06-14T02:48:22;4.47;;;4.17;;
579;SDS011;276;48.392;9.950;2023-06-14T02:50:48;5.63;;;5.13;;
579;SDS011;276;48.392;9.950;2023-06-14T02:53:14;4.33;;;3.93;;
579;SDS011;276;48.392;9.950;2023-06-14T02:55:39;6.27;;;4.87;;
579;SDS011;276;48.392;9.950;2023-06-14T02:58:05;4.47;;;4.13;;
579;SDS011;276;48.392;9.950;2023-06-14T03:00:31;5.23;;;4.83;;
579;SDS011;276;48.392;9.950;2023-06-14T03:02:57;4.83;;;4.53;;
579;SDS011;276;48.392;9.950;2023-06-14T03:05:29;6.97;;;4.70;;
579;SDS011;276;48.392;9.950;2023-06-14T03:07:55;5.20;;;4.70;;
579;SDS011;276;48.392;9.950;2023-06-14T03:10:24;4.80;;;4.30;;
579;SDS011;276;48.392;9.950;2023-06-14T03:12:54;7.10;;;5.27;;
579;SDS011;276;48.392;9.950;2023-06-14T03:15:19;4.47;;;4.07;;
579;SDS011;276;48.392;9.950;2023-06-14T03:17:49;6.07;;;5.57;;
579;SDS011;276;48.392;9.950;2023-06-14T03:20:18;4.83;;;4.43;;
579;SDS011;276;48.392;9.950;2023-06-14T03:22:44;4.73;;;4.43;;
579;SDS011;276;48.392;9.950;2023-06-14T03:25:11;4.70;;;4.30;;
579;SDS011;276;48.392;9.950;2023-06-14T03:27:38;5.40;;;4.53;;
579;SDS011;276;48.392;9.950;2023-06-14T03:30:07;5.77;;;5.27;;
579;SDS011;276;48.392;9.950;2023-06-14T03:32:33;4.50;;;4.10;;
579;SDS011;276;48.392;9.950;2023-06-14T03:34:59;4.37;;;3.97;;
579;SDS011;276;48.392;9.950;2023-06-14T03:37:24;5.53;;;5.03;;
579;SDS011;276;48.392;9.950;2023-06-14T03:39:50;7.03;;;4.30;;
579;SDS011;276;48.392;9.950;2023-06-14T03:42:16;4.87;;;4.47;;
579;SDS011;276;48.392;9.950;2023-06-14T03:44:42;5.50;;;4.10;;
579;SDS011;276;48.392;9.950;2023-06-14T03:47:10;5.13;;;4.73;;
579;SDS011;276;48.392;9.950;2023-06-14T03:49:36;4.93;;;4.53;;
579;SDS011;276;48.392;9.950;2023-06-14T03:52:04;5.00;;;4.60;;
579;SDS011;276;48.392;9.950;2023-06-14T03:54:30;5.40;;;4.90;;
579;SDS011;276;48.392;9.950;2023-06-14T03:56:57;6.03;;;5.53;;
579;SDS011;276;48.392;9.950;2023-06-14T03:59:26;4.40;;;3.90;;
579;SDS011;276;48.392;9.950;2023-06-14T04:01:51;5.30;;;4.80;;
579;SDS011;276;48.392;9.950;2023-06-14T04:04:18;5.03;;;4.63;;
579;SDS011;276;48.392;9.950;2023-06-14T04:06:44;4.83;;;4.43;;
579;SDS011;276;48.392;9.950;2023-06-14T04:09:13;6.27;;;5.77;;
579;SDS011;276;48.392;9.950;2023-06-14T04:11:41;7.93;;;7.23;;
579;SDS011;276;48.392;9.950;2023-06-14T04:14:09;7.20;;;6.50;;
579;SDS011;276;48.392;9.950;2023-06-14T04:16:36;7.03;;;6.40;;
579;SDS011;276;48.392;9.950;2023-06-14T04:19:02;6.13;;;5.73;;
579;SDS011;276;48.392;9.950;2023-06-14T04:21:30;5.63;;;5.17;;
579;SDS011;276;48.392;9.950;2023-06-14T04:23:56;5.97;;;5.47;;
579;SDS011;276;48.392;9.950;2023-06-14T04:26:22;5.77;;;5.27;;
579;SDS011;276;48.392;9.950;2023-06-14T04:28:48;6.07;;;5.47;;
579;SDS011;276;48.392;9.950;2023-06-14T04:31:15;6.80;;;5.50;;
579;SDS011;276;48.392;9.950;2023-06-14T04:33:43;5.17;;;4.77;;
579;SDS011;276;48.392;9.950;2023-06-14T04:36:11;5.60;;;5.20;;
579;SDS011;276;48.392;9.950;2023-06-14T04:38:40;5.27;;;4.70;;
579;SDS011;276;48.392;9.950;2023-06-14T04:41:09;6.10;;;5.60;;
579;SDS011;276;48.392;9.950;2023-06-14T04:43:36;6.07;;;5.53;;
579;SDS011;276;48.392;9.950;2023-06-14T04:46:03;5.50;;;5.03;;
579;SDS011;276;48.392;9.950;2023-06-14T04:48:41;9.50;;;8.50;;
579;SDS011;276;48.392;9.950;2023-06-14T04:51:07;12.17;;;9.93;;
579;SDS011;276;48.392;9.950;2023-06-14T04:53:36;14.70;;;13.33;;
579;SDS011;276;48.392;9.950;2023-06-14T04:56:04;9.33;;;8.60;;
579;SDS011;276;48.392;9.950;2023-06-14T04:58:30;10.47;;;9.27;;
579;SDS011;276;48.392;9.950;2023-06-14T05:00:55;10.70;;;9.80;;
579;SDS011;276;48.392;9.950;2023-06-14T05:03:22;11.90;;;10.90;;
579;SDS011;276;48.392;9.950;2023-06-14T05:05:48;23.73;;;16.30;;
579;SDS011;276;48.392;9.950;2023-06-14T05:08:18;14.57;;;13.17;;
579;SDS011;276;48.392;9.950;2023-06-14T05:10:45;13.60;;;11.87;;
579;SDS011;276;48.392;9.950;2023-06-14T05:13:12;9.43;;;8.63;;
579;SDS011;276;48.392;9.950;2023-06-14T05:15:38;9.47;;;7.97;;
579;SDS011;276;48.392;9.950;2023-06-14T05:18:03;13.37;;;12.07;;
579;SDS011;276;48.392;9.950;2023-06-14T05:20:29;11.83;;;10.27;;
579;SDS011;276;48.392;9.950;2023-06-14T05:22:55;9.83;;;9.03;;
579;SDS011;276;48.392;9.950;2023-06-14T05:25:22;8.20;;;7.50;;
579;SDS011;276;48.392;9.950;2023-06-14T05:27:52;7.87;;;6.73;;
579;SDS011;276;48.392;9.950;2023-06-14T05:30:18;6.50;;;5.83;;
579;SDS011;276;48.392;9.950;2023-06-14T05:32:46;5.20;;;4.70;;
579;SDS011;276;48.392;9.950;2023-06-14T05:35:11;7.20;;;5.00;;
579;SDS011;276;48.392;9.950;2023-06-14T05:37:37;9.00;;;6.07;;
579;SDS011;276;48.392;9.950;2023-06-14T05:40:08;6.03;;;5.63;;
579;SDS011;276;48.392;9.950;2023-06-14T05:42:34;6.07;;;5.43;;
579;SDS011;276;48.392;9.950;2023-06-14T05:44:59;4.90;;;4.43;;
579;SDS011;276;48.392;9.950;2023-06-14T05:47:27;4.57;;;4.27;;
579;SDS011;276;48.392;9.950;2023-06-14T05:49:53;4.83;;;4.43;;
579;SDS011;276;48.392;9.950;2023-06-14T05:52:20;4.77;;;4.47;;
579;SDS011;276;48.392;9.950;2023-06-14T05:54:45;4.40;;;4.10;;
579;SDS011;276;48.392;9.950;2023-06-14T05:57:11;6.00;;;5.40;;
579;SDS011;276;48.392;9.950;2023-06-14T05:59:37;4.80;;;4.43;;
579;SDS011;276;48.392;9.950;2023-06-14T06:02:02;4.63;;;4.13;;
579;SDS011;276;48.392;9.950;2023-06-14T06:04:28;5.17;;;4.67;;
579;SDS011;276;48.392;9.950;2023-06-14T06:06:54;5.33;;;4.80;;
579;SDS011;276;48.392;9.950;2023-06-14T06:09:22;6.20;;;5.43;;
579;SDS011;276;48.392;9.950;2023-06-14T06:11:48;4.20;;;3.80;;
579;SDS011;276;48.392;9.950;2023-06-14T06:14:13;4.83;;;4.53;;
579;SDS011;276;48.392;9.950;2023-06-14T06:16:41;5.30;;;4.83;;
579;SDS011;276;48.392;9.950;2023-06-14T06:19:06;5.83;;;4.70;;
579;SDS011;276;48.392;9.950;2023-06-14T06:21:35;4.80;;;4.40;;
579;SDS011;276;48.392;9.950;2023-06-14T06:24:00;4.83;;;4.37;;
579;SDS011;276;48.392;9.950;2023-06-14T06:26:28;5.53;;;5.00;;
579;SDS011;276;48.392;9.950;2023-06-14T06:28:54;8.43;;;5.70;;
579;SDS011;276;48.392;9.950;2023-06-14T06:31:20;5.33;;;4.93;;
579;SDS011;276;48.392;9.950;2023-06-14T06:33:48;4.77;;;4.37;;
579;SDS011;276;48.392;9.950;2023-06-14T06:36:14;6.00;;;4.70;;
579;SDS011;276;48.392;9.950;2023-06-14T06:38:39;5.90;;;4.43;;
579;SDS011;276;48.392;9.950;2023-06-14T06:41:07;5.70;;;4.47;;
579;SDS011;276;48.392;9.950;2023-06-14T06:43:33;5.00;;;4.60;;
579;SDS011;276;48.392;9.950;2023-06-14T06:46:01;4.30;;;4.00;;
579;SDS011;276;48.392;9.950;2023-06-14T06:48:27;5.27;;;4.60;;
579;SDS011;276;48.392;9.950;2023-06-14T06:50:53;5.53;;;4.23;;
579;SDS011;276;48.392;9.950;2023-06-14T06:53:20;5.20;;;4.80;;
579;SDS011;276;48.392;9.950;2023-06-14T06:55:45;4.67;;;4.37;;
579;SDS011;276;48.392;9.950;2023-06-14T06:58:11;5.30;;;4.80;;
579;SDS011;276;48.392;9.950;2023-06-14T07:00:37;4.40;;;4.10;;
579;SDS011;276;48.392;9.950;2023-06-14T07:03:03;9.00;;;4.70;;
579;SDS011;276;48.392;9.950;2023-06-14T07:05:29;5.60;;;5.10;;
579;SDS011;276;48.392;9.950;2023-06-14T07:07:54;7.37;;;5.60;;
579;SDS011;276;48.392;9.950;2023-06-14T07:10:23;5.97;;;5.47;;
579;SDS011;276;48.392;9.950;2023-06-14T07:12:49;7.80;;;5.30;;
579;SDS011;276;48.392;9.950;2023-06-14T07:15:18;7.67;;;4.50;;
579;SDS011;276;48.392;9.950;2023-06-14T07:17:46;5.00;;;4.50;;
579;SDS011;276;48.392;9.950;2023-06-14T07:20:12;4.60;;;4.20;;
579;SDS011;276;48.392;9.950;2023-06-14T07:22:42;4.30;;;4.00;;
579;SDS011;276;48.392;9.950;2023-06-14T07:25:08;4.80;;;4.33;;
579;SDS011;276;48.392;9.950;2023-06-14T07:27:37;7.47;;;4.83;;
579;SDS011;276;48.392;9.950;2023-06-14T07:30:03;5.67;;;5.17;;
579;SDS011;276;48.392;9.950;2023-06-14T07:32:36;5.47;;;5.07;;
579;SDS011;276;48.392;9.950;2023-06-14T07:35:01;5.50;;;5.07;;
579;SDS011;276;48.392;9.950;2023-06-14T07:37:28;5.40;;;4.83;;
579;SDS011;276;48.392;9.950;2023-06-14T07:39:53;8.20;;;5.50;;
579;SDS011;276;48.392;9.950;2023-06-14T07:42:19;4.87;;;4.57;;
579;SDS011;276;48.392;9.950;2023-06-14T07:44:45;5.87;;;5.37;;
579;SDS011;276;48.392;9.950;2023-06-14T07:47:15;4.27;;;3.97;;
579;SDS011;276;48.392;9.950;2023-06-14T07:49:43;4.37;;;3.97;;
579;SDS011;276;48.392;9.950;2023-06-14T07:52:08;4.03;;;3.73;;
579;SDS011;276;48.392;9.950;2023-06-14T07:54:34;4.33;;;4.03;;
579;SDS011;276;48.392;9.950;2023-06-14T07:57:02;4.80;;;4.40;;
579;SDS011;276;48.392;9.950;2023-06-14T07:59:28;4.53;;;4.23;;
579;SDS011;276;48.392;9.950;2023-06-14T08:01:56;5.23;;;4.83;;
579;SDS011;276;48.392;9.950;2023-06-14T08:04:21;4.97;;;4.57;;
579;SDS011;276;48.392;9.950;2023-06-14T08:06:47;5.60;;;5.10;;
579;SDS011;276;48.392;9.950;2023-06-14T08:09:15;4.33;;;4.03;;
579;SDS011;276;48.392;9.950;2023-06-14T08:11:41;4.40;;;4.00;;
579;SDS011;276;48.392;9.950;2023-06-14T08:14:07;4.77;;;4.37;;
579;SDS011;276;48.392;9.950;2023-06-14T08:16:33;4.60;;;4.20;;
579;SDS011;276;48.392;9.950;2023-06-14T08:19:00;5.50;;;5.00;;
579;SDS011;276;48.392;9.950;2023-06-14T08:21:26;4.80;;;4.50;;
579;SDS011;276;48.392;9.950;2023-06-14T08:23:54;4.77;;;4.30;;
579;SDS011;276;48.392;9.950;2023-06-14T08:26:22;4.93;;;4.43;;
579;SDS011;276;48.392;9.950;2023-06-14T08:28:48;6.57;;;5.97;;
579;SDS011;276;48.392;9.950;2023-06-14T08:31:14;4.70;;;4.30;;
579;SDS011;276;48.392;9.950;2023-06-14T08:33:39;4.87;;;4.37;;
579;SDS011;276;48.392;9.950;2023-06-14T08:36:08;4.93;;;4.60;;
579;SDS011;276;48.392;9.950;2023-06-14T08:38:37;4.60;;;4.20;;
579;SDS011;276;48.392;9.950;2023-06-14T08:41:05;5.50;;;5.10;;
579;SDS011;276;48.392;9.950;2023-06-14T08:43:40;5.50;;;5.00;;
579;SDS011;276;48.392;9.950;2023-06-14T08:46:06;4.20;;;3.80;;
579;SDS011;276;48.392;9.950;2023-06-14T08:48:35;4.50;;;4.10;;
579;SDS011;276;48.392;9.950;2023-06-14T08:51:03;4.60;;;4.30;;
579;SDS011;276;48.392;9.950;2023-06-14T08:53:32;6.60;;;4.00;;
579;SDS011;276;48.392;9.950;2023-06-14T08:56:01;4.33;;;4.03;;
579;SDS011;276;48.392;9.950;2023-06-14T08:58:29;4.50;;;3.90;;
579;SDS011;276;48.392;9.950;2023-06-14T09:00:58;5.07;;;4.60;;
579;SDS011;276;48.392;9.950;2023-06-14T09:03:27;4.27;;;3.87;;
579;SDS011;276;48.392;9.950;2023-06-14T09:05:56;5.40;;;4.90;;
579;SDS011;276;48.392;9.950;2023-06-14T09:08:24;5.40;;;4.93;;
579;SDS011;276;48.392;9.950;2023-06-14T09:10:50;4.87;;;4.40;;
579;SDS011;276;48.392;9.950;2023-06-14T09:13:18;3.83;;;3.53;;
579;SDS011;276;48.392;9.950;2023-06-14T09:15:44;6.97;;;3.57;;
579;SDS011;276;48.392;9.950;2023-06-14T09:18:10;6.03;;;3.63;;
579;SDS011;276;48.392;9.950;2023-06-14T09:20:36;3.90;;;3.60;;
579;SDS011;276;48.392;9.950;2023-06-14T09:23:05;4.40;;;3.70;;
579;SDS011;276;48.392;9.950;2023-06-14T09:25:41;4.87;;;4.47;;
579;SDS011;276;48.392;9.950;2023-06-14T09:28:08;4.30;;;3.90;;
579;SDS011;276;48.392;9.950;2023-06-14T09:30:37;3.90;;;3.60;;
579;SDS011;276;48.392;9.950;2023-06-14T09:33:03;4.87;;;3.40;;
579;SDS011;276;48.392;9.950;2023-06-14T09:35:30;4.60;;;4.20;;
579;SDS011;276;48.392;9.950;2023-06-14T09:37:57;4.70;;;4.27;;
579;SDS011;276;48.392;9.950;2023-06-14T09:40:22;3.80;;;3.47;;
579;SDS011;276;48.392;9.950;2023-06-14T09:42:48;4.20;;;3.73;;
579;SDS011;276;48.392;9.950;2023-06-14T09:45:17;5.27;;;3.07;;
579;SDS011;276;48.392;9.950;2023-06-14T09:47:47;3.60;;;3.30;;
579;SDS011;276;48.392;9.950;2023-06-14T09:50:18;4.20;;;3.80;;
579;SDS011;276;48.392;9.950;2023-06-14T09:52:44;6.17;;;4.03;;
579;SDS011;276;48.392;9.950;2023-06-14T09:55:12;3.37;;;3.07;;
579;SDS011;276;48.392;9.950;2023-06-14T09:57:40;6.83;;;4.43;;
579;SDS011;276;48.392;9.950;2023-06-14T10:00:10;4.70;;;3.77;;
579;SDS011;276;48.392;9.950;2023-06-14T10:02:42;6.77;;;4.17;;
579;SDS011;276;48.392;9.950;2023-06-14T10:05:16;7.10;;;3.73;;
579;SDS011;276;48.392;9.950;2023-06-14T10:10:12;4.90;;;4.50;;
579;SDS011;276;48.392;9.950;2023-06-14T10:12:38;3.67;;;3.37;;
579;SDS011;276;48.392;9.950;2023-06-14T10:15:09;4.43;;;4.10;;
579;SDS011;276;48.392;9.950;2023-06-14T10:17:50;4.10;;;3.80;;
579;SDS011;276;48.392;9.950;2023-06-14T10:20:24;4.27;;;3.83;;
579;SDS011;276;48.392;9.950;2023-06-14T10:22:56;4.80;;;4.10;;
579;SDS011;276;48.392;9.950;2023-06-14T10:25:31;5.33;;;4.10;;
579;SDS011;276;48.392;9.950;2023-06-14T10:28:30;4.53;;;4.17;;
579;SDS011;276;48.392;9.950;2023-06-14T10:31:12;5.87;;;3.87;;
579;SDS011;276;48.392;9.950;2023-06-14T10:33:49;5.37;;;4.00;;
579;SDS011;276;48.392;9.950;2023-06-14T10:36:27;4.17;;;3.77;;
579;SDS011;276;48.392;9.950;2023-06-14T10:39:18;3.67;;;3.47;;
579;SDS011;276;48.392;9.950;2023-06-14T10:41:52;4.47;;;4.07;;
579;SDS011;276;48.392;9.950;2023-06-14T10:49:16;9.03;;;4.23;;
579;SDS011;276;48.392;9.950;2023-06-14T10:51:44;4.60;;;4.20;;
579;SDS011;276;48.392;9.950;2023-06-14T10:54:14;4.30;;;4.00;;
579;SDS011;276;48.392;9.950;2023-06-14T10:59:17;4.00;;;3.70;;
579;SDS011;276;48.392;9.950;2023-06-14T11:04:44;6.07;;;3.80;;
579;SDS011;276;48.392;9.950;2023-06-14T11:13:01;3.97;;;3.57;;
579;SDS011;276;48.392;9.950;2023-06-14T11:15:31;4.83;;;4.23;;
579;SDS011;276;48.392;9.950;2023-06-14T11:18:00;3.87;;;3.57;;
579;SDS011;276;48.392;9.950;2023-06-14T11:20:35;4.93;;;4.00;;
579;SDS011;276;48.392;9.950;2023-06-14T11:23:01;4.17;;;3.83;;
579;SDS011;276;48.392;9.950;2023-06-14T11:25:28;4.13;;;3.83;;
579;SDS011;276;48.392;9.950;2023-06-14T11:27:53;4.47;;;4.13;;
579;SDS011;276;48.392;9.950;2023-06-14T11:30:22;5.13;;;4.67;;
579;SDS011;276;48.392;9.950;2023-06-14T11:32:48;4.10;;;3.70;;
579;SDS011;276;48.392;9.950;2023-06-14T11:35:15;4.17;;;3.87;;
579;SDS011;276;48.392;9.950;2023-06-14T11:37:42;4.27;;;3.93;;
579;SDS011;276;48.392;9.950;2023-06-14T11:40:10;4.50;;;3.70;;
579;SDS011;276;48.392;9.950;2023-06-14T11:42:40;3.40;;;3.20;;
579;SDS011;276;48.392;9.950;2023-06-14T11:45:10;4.20;;;3.90;;
579;SDS011;276;48.392;9.950;2023-06-14T11:47:39;4.10;;;3.70;;
579;SDS011;276;48.392;9.950;2023-06-14T11:50:06;3.90;;;3.60;;
579;SDS011;276;48.392;9.950;2023-06-14T11:52:38;7.13;;;3.73;;
579;SDS011;276;48.392;9.950;2023-06-14T11:55:03;5.50;;;5.10;;
579;SDS011;276;48.392;9.950;2023-06-14T11:57:30;4.20;;;3.90;;
579;SDS011;276;48.392;9.950;2023-06-14T11:59:59;3.53;;;3.33;;
579;SDS011;276;48.392;9.950;2023-06-14T12:02:25;3.63;;;3.33;;
579;SDS011;276;48.392;9.950;2023-06-14T12:04:56;4.40;;;4.00;;
579;SDS011;276;48.392;9.950;2023-06-14T12:07:28;4.90;;;4.57;;
579;SDS011;276;48.392;9.950;2023-06-14T12:12:26;4.10;;;3.80;;
579;SDS011;276;48.392;9.950;2023-06-14T12:14:52;4.47;;;4.03;;
579;SDS011;276;48.392;9.950;2023-06-14T12:17:18;4.33;;;4.03;;
579;SDS011;276;48.392;9.950;2023-06-14T12:19:49;3.90;;;3.60;;
579;SDS011;276;48.392;9.950;2023-06-14T12:22:17;3.87;;;3.57;;
579;SDS011;276;48.392;9.950;2023-06-14T12:24:46;3.83;;;3.63;;
579;SDS011;276;48.392;9.950;2023-06-14T12:27:12;4.60;;;4.30;;
579;SDS011;276;48.392;9.950;2023-06-14T12:29:40;4.30;;;3.90;;
579;SDS011;276;48.392;9.950;2023-06-14T12:32:08;4.20;;;4.00;;
579;SDS011;276;48.392;9.950;2023-06-14T12:34:34;4.27;;;3.97;;
579;SDS011;276;48.392;9.950;2023-06-14T12:37:00;4.03;;;3.73;;
579;SDS011;276;48.392;9.950;2023-06-14T12:39:31;4.20;;;3.90;;
579;SDS011;276;48.392;9.950;2023-06-14T12:41:57;3.60;;;3.40;;
579;SDS011;276;48.392;9.950;2023-06-14T12:44:24;4.00;;;3.70;;
579;SDS011;276;48.392;9.950;2023-06-14T12:46:49;3.37;;;3.17;;
579;SDS011;276;48.392;9.950;2023-06-14T12:49:17;4.20;;;3.90;;
579;SDS011;276;48.392;9.950;2023-06-14T12:51:45;4.27;;;3.97;;
579;SDS011;276;48.392;9.950;2023-06-14T12:54:13;4.63;;;4.17;;
579;SDS011;276;48.392;9.950;2023-06-14T12:56:40;3.57;;;3.30;;
579;SDS011;276;48.392;9.950;2023-06-14T12:59:08;4.13;;;3.93;;
579;SDS011;276;48.392;9.950;2023-06-14T13:01:37;4.37;;;3.80;;
579;SDS011;276;48.392;9.950;2023-06-14T13:04:04;4.20;;;3.80;;
579;SDS011;276;48.392;9.950;2023-06-14T13:06:30;5.07;;;4.57;;
579;SDS011;276;48.392;9.950;2023-06-14T13:08:56;4.80;;;4.40;;
579;SDS011;276;48.392;9.950;2023-06-14T13:11:23;5.00;;;4.53;;
579;SDS011;276;48.392;9.950;2023-06-14T13:13:49;5.70;;;4.37;;
579;SDS011;276;48.392;9.950;2023-06-14T13:16:15;5.47;;;4.17;;
579;SDS011;276;48.392;9.950;2023-06-14T13:18:40;4.10;;;3.70;;
579;SDS011;276;48.392;9.950;2023-06-14T13:21:06;4.93;;;3.57;;
579;SDS011;276;48.392;9.950;2023-06-14T13:23:34;3.97;;;3.67;;
579;SDS011;276;48.392;9.950;2023-06-14T13:26:02;4.30;;;4.00;;
579;SDS011;276;48.392;9.950;2023-06-14T13:28:27;4.00;;;3.70;;
579;SDS011;276;48.392;9.950;2023-06-14T13:30:53;4.37;;;4.07;;
579;SDS011;276;48.392;9.950;2023-06-14T13:33:20;4.23;;;3.83;;
579;SDS011;276;48.392;9.950;2023-06-14T13:35:46;4.00;;;3.60;;
579;SDS011;276;48.392;9.950;2023-06-14T13:38:14;3.80;;;3.37;;
579;SDS011;276;48.392;9.950;2023-06-14T13:40:40;5.93;;;4.00;;
579;SDS011;276;48.392;9.950;2023-06-14T13:43:06;7.93;;;4.40;;
579;SDS011;276;48.392;9.950;2023-06-14T13:45:31;6.90;;;3.87;;
579;SDS011;276;48.392;9.950;2023-06-14T13:47:57;3.40;;;3.20;;
579;SDS011;276;48.392;9.950;2023-06-14T13:50:25;4.07;;;3.67;;
579;SDS011;276;48.392;9.950;2023-06-14T13:52:51;4.00;;;3.70;;
579;SDS011;276;48.392;9.950;2023-06-14T13:55:16;5.60;;;4.17;;
579;SDS011;276;48.392;9.950;2023-06-14T13:57:42;3.90;;;3.60;;
579;SDS011;276;48.392;9.950;2023-06-14T14:00:08;3.97;;;3.63;;
579;SDS011;276;48.392;9.950;2023-06-14T14:02:34;3.90;;;3.60;;
579;SDS011;276;48.392;9.950;2023-06-14T14:05:05;5.33;;;4.27;;
579;SDS011;276;48.392;9.950;2023-06-14T14:07:31;3.77;;;3.30;;
579;SDS011;276;48.392;9.950;2023-06-14T14:09:57;3.47;;;3.17;;
579;SDS011;276;48.392;9.950;2023-06-14T14:12:23;4.23;;;3.93;;
579;SDS011;276;48.392;9.950;2023-06-14T14:14:50;4.80;;;4.13;;
579;SDS011;276;48.392;9.950;2023-06-14T14:17:18;3.67;;;3.47;;
579;SDS011;276;48.392;9.950;2023-06-14T14:19:44;3.60;;;3.40;;
579;SDS011;276;48.392;9.950;2023-06-14T14:22:10;3.30;;;3.10;;
579;SDS011;276;48.392;9.950;2023-06-14T14:24:36;4.43;;;4.00;;
579;SDS011;276;48.392;9.950;2023-06-14T14:27:01;3.77;;;3.57;;
579;SDS011;276;48.392;9.950;2023-06-14T14:29:33;4.00;;;3.70;;
579;SDS011;276;48.392;9.950;2023-06-14T14:32:01;4.27;;;3.87;;
579;SDS011;276;48.392;9.950;2023-06-14T14:34:26;5.13;;;4.73;;
579;SDS011;276;48.392;9.950;2023-06-14T14:36:53;4.50;;;3.90;;
579;SDS011;276;48.392;9.950;2023-06-14T14:39:19;4.17;;;3.70;;
579;SDS011;276;48.392;9.950;2023-06-14T14:41:47;4.20;;;3.90;;
579;SDS011;276;48.392;9.950;2023-06-14T14:44:12;4.80;;;4.20;;
579;SDS011;276;48.392;9.950;2023-06-14T14:46:41;3.70;;;3.40;;
579;SDS011;276;48.392;9.950;2023-06-14T14:49:06;4.10;;;3.70;;
579;SDS011;276;48.392;9.950;2023-06-14T14:51:32;4.03;;;3.73;;
579;SDS011;276;48.392;9.950;2023-06-14T14:53:58;3.80;;;3.50;;
579;SDS011;276;48.392;9.950;2023-06-14T14:56:23;7.10;;;3.93;;
579;SDS011;276;48.392;9.950;2023-06-14T14:58:50;4.00;;;3.70;;
579;SDS011;276;48.392;9.950;2023-06-14T15:01:19;3.93;;;3.53;;
579;SDS011;276;48.392;9.950;2023-06-14T15:03:45;4.40;;;4.10;;
579;SDS011;276;48.392;9.950;2023-06-14T15:06:12;4.40;;;4.10;;
579;SDS011;276;48.392;9.950;2023-06-14T15:08:40;4.73;;;3.60;;
579;SDS011;276;48.392;9.950;2023-06-14T15:11:06;4.60;;;4.20;;
579;SDS011;276;48.392;9.950;2023-06-14T15:13:34;3.53;;;3.23;;
579;SDS011;276;48.392;9.950;2023-06-14T15:15:59;3.83;;;3.50;;
579;SDS011;276;48.392;9.950;2023-06-14T15:18:27;4.37;;;4.07;;
579;SDS011;276;48.392;9.950;2023-06-14T15:20:53;4.07;;;3.77;;
579;SDS011;276;48.392;9.950;2023-06-14T15:23:21;4.00;;;3.53;;
579;SDS011;276;48.392;9.950;2023-06-14T15:25:47;4.30;;;3.00;;
579;SDS011;276;48.392;9.950;2023-06-14T15:28:17;4.63;;;4.33;;
579;SDS011;276;48.392;9.950;2023-06-14T15:30:43;3.90;;;3.60;;
579;SDS011;276;48.392;9.950;2023-06-14T15:33:08;4.07;;;3.77;;
579;SDS011;276;48.392;9.950;2023-06-14T15:35:34;4.47;;;3.90;;
579;SDS011;276;48.392;9.950;2023-06-14T15:38:02;4.40;;;4.00;;
579;SDS011;276;48.392;9.950;2023-06-14T15:40:28;4.27;;;3.87;;
579;SDS011;276;48.392;9.950;2023-06-14T15:42:54;3.73;;;3.43;;
579;SDS011;276;48.392;9.950;2023-06-14T15:45:22;4.03;;;3.70;;
579;SDS011;276;48.392;9.950;2023-06-14T15:47:47;5.57;;;5.07;;
579;SDS011;276;48.392;9.950;2023-06-14T15:50:13;4.63;;;4.23;;
579;SDS011;276;48.392;9.950;2023-06-14T15:52:39;4.50;;;4.10;;
579;SDS011;276;48.392;9.950;2023-06-14T15:55:04;4.40;;;4.00;;
579;SDS011;276;48.392;9.950;2023-06-14T15:57:30;3.77;;;3.47;;
579;SDS011;276;48.392;9.950;2023-06-14T15:59:56;3.40;;;3.20;;
579;SDS011;276;48.392;9.950;2023-06-14T16:02:21;3.83;;;3.53;;
579;SDS011;276;48.392;9.950;2023-06-14T16:04:49;4.43;;;3.60;;
579;SDS011;276;48.392;9.950;2023-06-14T16:07:15;4.60;;;4.20;;
579;SDS011;276;48.392;9.950;2023-06-14T16:09:41;4.17;;;3.87;;
579;SDS011;276;48.392;9.950;2023-06-14T16:12:08;4.27;;;4.03;;